sensor_id;sensor_type;location;lat;lon;timestamp;P1;durP1;ratioP1;P2;durP2;ratioP2
2724;SDS011;1370;52.596;13.112;2023-02-28T00:00:16;15.57;;;11.33;;
2724;SDS011;1370;52.596;13.112;2023-02-28T00:02:43;12.03;;;9.43;;
2724;SDS011;1370;52.596;13.112;2023-02-28T00:05:10;9.90;;;8.10;;
2724;SDS011;1370;52.596;13.112;2023-02-28T00:07:36;13.30;;;7.93;;
2724;SDS011;1370;52.596;13.112;2023-02-28T00:10:02;12.37;;;8.47;;
2724;SDS011;1370;52.596;13.112;2023-02-28T00:12:28;10.93;;;8.60;;
2724;SDS011;1370;52.596;13.112;2023-02-28T00:14:53;10.37;;;8.40;;
2724;SDS011;1370;52.596;13.112;2023-02-28T00:17:19;16.10;;;8.47;;
2724;SDS011;1370;52.596;13.112;2023-02-28T00:19:46;18.43;;;8.70;;
2724;SDS011;1370;52.596;13.112;2023-02-28T00:22:12;8.10;;;7.37;;
2724;SDS011;1370;52.596;13.112;2023-02-28T00:24:38;9.83;;;7.10;;
2724;SDS011;1370;52.596;13.112;2023-02-28T00:27:03;11.80;;;9.10;;
2724;SDS011;1370;52.596;13.112;2023-02-28T00:29:28;10.47;;;9.27;;
2724;SDS011;1370;52.596;13.112;2023-02-28T00:31:54;10.53;;;8.13;;
2724;SDS011;1370;52.596;13.112;2023-02-28T00:34:19;11.77;;;8.67;;
2724;SDS011;1370;52.596;13.112;2023-02-28T00:36:44;11.90;;;10.30;;
2724;SDS011;1370;52.596;13.112;2023-02-28T00:39:13;12.47;;;9.97;;
2724;SDS011;1370;52.596;13.112;2023-02-28T00:41:39;10.43;;;9.30;;
2724;SDS011;1370;52.596;13.112;2023-02-28T00:44:04;14.50;;;9.40;;
2724;SDS011;1370;52.596;13.112;2023-02-28T00:46:29;9.60;;;8.10;;
2724;SDS011;1370;52.596;13.112;2023-02-28T00:48:54;10.30;;;8.00;;
2724;SDS011;1370;52.596;13.112;2023-02-28T00:51:20;9.67;;;7.80;;
2724;SDS011;1370;52.596;13.112;2023-02-28T00:53:45;8.83;;;7.93;;
2724;SDS011;1370;52.596;13.112;2023-02-28T00:56:10;13.40;;;7.10;;
2724;SDS011;1370;52.596;13.112;2023-02-28T00:58:36;11.83;;;7.73;;
2724;SDS011;1370;52.596;13.112;2023-02-28T01:01:02;8.40;;;7.70;;
2724;SDS011;1370;52.596;13.112;2023-02-28T01:03:28;14.10;;;8.30;;
2724;SDS011;1370;52.596;13.112;2023-02-28T01:05:53;7.57;;;6.77;;
2724;SDS011;1370;52.596;13.112;2023-02-28T01:08:19;8.37;;;7.53;;
2724;SDS011;1370;52.596;13.112;2023-02-28T01:10:44;9.03;;;8.13;;
2724;SDS011;1370;52.596;13.112;2023-02-28T01:13:10;8.20;;;7.50;;
2724;SDS011;1370;52.596;13.112;2023-02-28T01:15:36;11.47;;;8.60;;
2724;SDS011;1370;52.596;13.112;2023-02-28T01:18:01;8.70;;;7.73;;
2724;SDS011;1370;52.596;13.112;2023-02-28T01:20:27;10.60;;;7.93;;
2724;SDS011;1370;52.596;13.112;2023-02-28T01:22:52;8.50;;;7.73;;
2724;SDS011;1370;52.596;13.112;2023-02-28T01:25:17;10.40;;;8.53;;
2724;SDS011;1370;52.596;13.112;2023-02-28T01:27:42;9.27;;;7.17;;
2724;SDS011;1370;52.596;13.112;2023-02-28T01:30:08;10.43;;;7.43;;
2724;SDS011;1370;52.596;13.112;2023-02-28T01:32:35;10.77;;;8.23;;
2724;SDS011;1370;52.596;13.112;2023-02-28T01:35:00;9.43;;;7.93;;
2724;SDS011;1370;52.596;13.112;2023-02-28T01:37:25;9.90;;;7.27;;
2724;SDS011;1370;52.596;13.112;2023-02-28T01:39:51;9.70;;;8.37;;
2724;SDS011;1370;52.596;13.112;2023-02-28T01:42:17;7.83;;;7.13;;
2724;SDS011;1370;52.596;13.112;2023-02-28T01:44:59;8.83;;;7.33;;
2724;SDS011;1370;52.596;13.112;2023-02-28T01:47:40;10.75;;;7.07;;
2724;SDS011;1370;52.596;13.112;2023-02-28T01:50:07;7.43;;;6.70;;
2724;SDS011;1370;52.596;13.112;2023-02-28T01:52:35;10.90;;;7.97;;
2724;SDS011;1370;52.596;13.112;2023-02-28T01:55:01;10.93;;;7.40;;
2724;SDS011;1370;52.596;13.112;2023-02-28T01:57:32;7.90;;;7.10;;
2724;SDS011;1370;52.596;13.112;2023-02-28T02:00:07;8.70;;;7.83;;
2724;SDS011;1370;52.596;13.112;2023-02-28T02:02:34;10.70;;;7.07;;
2724;SDS011;1370;52.596;13.112;2023-02-28T02:05:08;8.53;;;7.27;;
2724;SDS011;1370;52.596;13.112;2023-02-28T02:07:36;6.80;;;6.22;;
2724;SDS011;1370;52.596;13.112;2023-02-28T02:13:05;7.93;;;7.28;;
2724;SDS011;1370;52.596;13.112;2023-02-28T02:24:16;8.60;;;7.25;;
2724;SDS011;1370;52.596;13.112;2023-02-28T02:32:48;6.90;;;6.30;;
2724;SDS011;1370;52.596;13.112;2023-02-28T02:35:34;7.40;;;6.70;;
2724;SDS011;1370;52.596;13.112;2023-02-28T02:40:35;7.82;;;6.53;;
2724;SDS011;1370;52.596;13.112;2023-02-28T02:43:16;7.30;;;6.60;;
2724;SDS011;1370;52.596;13.112;2023-02-28T02:45:47;9.73;;;6.35;;
2724;SDS011;1370;52.596;13.112;2023-02-28T02:48:16;7.93;;;7.15;;
2724;SDS011;1370;52.596;13.112;2023-02-28T02:50:45;14.73;;;7.38;;
2724;SDS011;1370;52.596;13.112;2023-02-28T02:53:13;7.00;;;6.30;;
2724;SDS011;1370;52.596;13.112;2023-02-28T02:55:40;9.70;;;7.53;;
2724;SDS011;1370;52.596;13.112;2023-02-28T02:58:08;7.25;;;6.15;;
2724;SDS011;1370;52.596;13.112;2023-02-28T03:00:37;8.65;;;6.50;;
2724;SDS011;1370;52.596;13.112;2023-02-28T03:03:06;7.28;;;6.57;;
2724;SDS011;1370;52.596;13.112;2023-02-28T03:05:41;7.00;;;6.38;;
2724;SDS011;1370;52.596;13.112;2023-02-28T03:08:09;8.55;;;7.07;;
2724;SDS011;1370;52.596;13.112;2023-02-28T03:10:36;10.40;;;6.40;;
2724;SDS011;1370;52.596;13.112;2023-02-28T03:15:57;11.20;;;6.82;;
2724;SDS011;1370;52.596;13.112;2023-02-28T03:21:22;8.73;;;7.00;;
2724;SDS011;1370;52.596;13.112;2023-02-28T03:24:07;8.32;;;6.43;;
2724;SDS011;1370;52.596;13.112;2023-02-28T03:26:37;7.68;;;5.95;;
2724;SDS011;1370;52.596;13.112;2023-02-28T03:29:06;8.75;;;6.18;;
2724;SDS011;1370;52.596;13.112;2023-02-28T03:31:51;7.43;;;6.72;;
2724;SDS011;1370;52.596;13.112;2023-02-28T03:36:55;7.93;;;6.97;;
2724;SDS011;1370;52.596;13.112;2023-02-28T03:39:28;7.22;;;6.40;;
2724;SDS011;1370;52.596;13.112;2023-02-28T03:41:58;8.95;;;6.93;;
2724;SDS011;1370;52.596;13.112;2023-02-28T03:44:26;7.13;;;5.95;;
2724;SDS011;1370;52.596;13.112;2023-02-28T03:47:00;6.57;;;6.05;;
2724;SDS011;1370;52.596;13.112;2023-02-28T03:49:35;7.45;;;5.82;;
2724;SDS011;1370;52.596;13.112;2023-02-28T03:52:04;7.35;;;6.57;;
2724;SDS011;1370;52.596;13.112;2023-02-28T03:54:32;7.25;;;6.50;;
2724;SDS011;1370;52.596;13.112;2023-02-28T03:57:01;8.18;;;7.47;;
2724;SDS011;1370;52.596;13.112;2023-02-28T03:59:34;7.70;;;6.80;;
2724;SDS011;1370;52.596;13.112;2023-02-28T04:02:15;6.43;;;5.93;;
2724;SDS011;1370;52.596;13.112;2023-02-28T04:04:41;7.80;;;6.80;;
2724;SDS011;1370;52.596;13.112;2023-02-28T04:07:10;6.75;;;6.20;;
2724;SDS011;1370;52.596;13.112;2023-02-28T04:09:36;8.45;;;6.68;;
2724;SDS011;1370;52.596;13.112;2023-02-28T04:12:01;8.27;;;6.87;;
2724;SDS011;1370;52.596;13.112;2023-02-28T04:14:26;7.73;;;7.03;;
2724;SDS011;1370;52.596;13.112;2023-02-28T04:16:52;12.10;;;6.73;;
2724;SDS011;1370;52.596;13.112;2023-02-28T04:19:17;7.23;;;5.80;;
2724;SDS011;1370;52.596;13.112;2023-02-28T04:21:44;11.80;;;7.20;;
2724;SDS011;1370;52.596;13.112;2023-02-28T04:24:11;10.48;;;6.90;;
2724;SDS011;1370;52.596;13.112;2023-02-28T04:26:39;7.18;;;6.50;;
2724;SDS011;1370;52.596;13.112;2023-02-28T04:29:06;10.77;;;7.15;;
2724;SDS011;1370;52.596;13.112;2023-02-28T04:31:32;7.67;;;6.93;;
2724;SDS011;1370;52.596;13.112;2023-02-28T04:33:57;7.23;;;6.47;;
2724;SDS011;1370;52.596;13.112;2023-02-28T04:36:23;7.83;;;7.03;;
2724;SDS011;1370;52.596;13.112;2023-02-28T04:38:48;7.80;;;6.47;;
2724;SDS011;1370;52.596;13.112;2023-02-28T04:41:14;6.80;;;6.30;;
2724;SDS011;1370;52.596;13.112;2023-02-28T04:43:39;7.20;;;6.50;;
2724;SDS011;1370;52.596;13.112;2023-02-28T04:46:05;6.00;;;5.50;;
2724;SDS011;1370;52.596;13.112;2023-02-28T04:48:32;7.70;;;6.57;;
2724;SDS011;1370;52.596;13.112;2023-02-28T04:51:05;12.07;;;7.28;;
2724;SDS011;1370;52.596;13.112;2023-02-28T04:53:32;7.20;;;6.50;;
2724;SDS011;1370;52.596;13.112;2023-02-28T04:55:58;10.13;;;6.87;;
2724;SDS011;1370;52.596;13.112;2023-02-28T04:58:23;6.80;;;6.10;;
2724;SDS011;1370;52.596;13.112;2023-02-28T05:00:49;7.10;;;6.40;;
2724;SDS011;1370;52.596;13.112;2023-02-28T05:03:17;7.93;;;6.60;;
2724;SDS011;1370;52.596;13.112;2023-02-28T05:05:43;7.80;;;7.10;;
2724;SDS011;1370;52.596;13.112;2023-02-28T05:08:08;10.13;;;7.60;;
2724;SDS011;1370;52.596;13.112;2023-02-28T05:10:34;9.53;;;7.30;;
2724;SDS011;1370;52.596;13.112;2023-02-28T05:12:59;8.33;;;7.53;;
2724;SDS011;1370;52.596;13.112;2023-02-28T05:15:25;7.03;;;6.43;;
2724;SDS011;1370;52.596;13.112;2023-02-28T05:17:50;11.00;;;8.00;;
2724;SDS011;1370;52.596;13.112;2023-02-28T05:20:15;6.57;;;6.10;;
2724;SDS011;1370;52.596;13.112;2023-02-28T05:22:41;8.77;;;6.70;;
2724;SDS011;1370;52.596;13.112;2023-02-28T05:25:08;9.90;;;7.03;;
2724;SDS011;1370;52.596;13.112;2023-02-28T05:27:36;7.28;;;6.60;;
2724;SDS011;1370;52.596;13.112;2023-02-28T05:30:01;7.77;;;7.17;;
2724;SDS011;1370;52.596;13.112;2023-02-28T05:32:28;8.95;;;7.15;;
2724;SDS011;1370;52.596;13.112;2023-02-28T05:34:53;7.07;;;6.47;;
2724;SDS011;1370;52.596;13.112;2023-02-28T05:37:19;7.17;;;6.50;;
2724;SDS011;1370;52.596;13.112;2023-02-28T05:39:44;7.17;;;6.60;;
2724;SDS011;1370;52.596;13.112;2023-02-28T05:42:09;6.30;;;5.80;;
2724;SDS011;1370;52.596;13.112;2023-02-28T05:44:35;7.40;;;6.33;;
2724;SDS011;1370;52.596;13.112;2023-02-28T05:47:01;9.03;;;8.10;;
2724;SDS011;1370;52.596;13.112;2023-02-28T05:49:26;7.30;;;6.60;;
2724;SDS011;1370;52.596;13.112;2023-02-28T05:51:51;5.90;;;5.50;;
2724;SDS011;1370;52.596;13.112;2023-02-28T05:54:16;8.03;;;6.47;;
2724;SDS011;1370;52.596;13.112;2023-02-28T05:56:42;7.50;;;6.80;;
2724;SDS011;1370;52.596;13.112;2023-02-28T05:59:10;25.73;;;20.73;;
2724;SDS011;1370;52.596;13.112;2023-02-28T06:01:37;10.23;;;9.30;;
2724;SDS011;1370;52.596;13.112;2023-02-28T06:04:08;12.65;;;8.95;;
2724;SDS011;1370;52.596;13.112;2023-02-28T06:06:35;16.38;;;14.32;;
2724;SDS011;1370;52.596;13.112;2023-02-28T06:09:01;21.08;;;15.40;;
2724;SDS011;1370;52.596;13.112;2023-02-28T06:11:28;30.65;;;22.40;;
2724;SDS011;1370;52.596;13.112;2023-02-28T06:13:54;19.63;;;11.27;;
2724;SDS011;1370;52.596;13.112;2023-02-28T06:16:20;11.93;;;9.35;;
2724;SDS011;1370;52.596;13.112;2023-02-28T06:18:46;9.43;;;8.67;;
2724;SDS011;1370;52.596;13.112;2023-02-28T06:21:12;8.63;;;7.57;;
2724;SDS011;1370;52.596;13.112;2023-02-28T06:23:37;10.47;;;8.80;;
2724;SDS011;1370;52.596;13.112;2023-02-28T06:26:02;10.97;;;7.40;;
2724;SDS011;1370;52.596;13.112;2023-02-28T06:28:28;8.17;;;7.47;;
2724;SDS011;1370;52.596;13.112;2023-02-28T06:30:53;10.83;;;7.67;;
2724;SDS011;1370;52.596;13.112;2023-02-28T06:33:18;7.43;;;6.80;;
2724;SDS011;1370;52.596;13.112;2023-02-28T06:35:44;10.43;;;7.40;;
2724;SDS011;1370;52.596;13.112;2023-02-28T06:38:11;11.50;;;6.97;;
2724;SDS011;1370;52.596;13.112;2023-02-28T06:40:36;8.00;;;7.20;;
2724;SDS011;1370;52.596;13.112;2023-02-28T06:43:02;10.57;;;7.23;;
2724;SDS011;1370;52.596;13.112;2023-02-28T06:45:27;7.00;;;6.33;;
2724;SDS011;1370;52.596;13.112;2023-02-28T06:47:53;7.80;;;7.03;;
2724;SDS011;1370;52.596;13.112;2023-02-28T06:50:18;7.37;;;6.57;;
2724;SDS011;1370;52.596;13.112;2023-02-28T06:52:45;9.13;;;8.00;;
2724;SDS011;1370;52.596;13.112;2023-02-28T06:55:11;9.73;;;6.87;;
2724;SDS011;1370;52.596;13.112;2023-02-28T06:57:37;92.38;;;48.42;;
2724;SDS011;1370;52.596;13.112;2023-02-28T07:00:04;79.30;;;47.40;;
2724;SDS011;1370;52.596;13.112;2023-02-28T07:02:32;29.30;;;18.15;;
2724;SDS011;1370;52.596;13.112;2023-02-28T07:04:58;11.77;;;10.57;;
2724;SDS011;1370;52.596;13.112;2023-02-28T07:07:23;8.90;;;8.00;;
2724;SDS011;1370;52.596;13.112;2023-02-28T07:09:48;10.20;;;8.40;;
2724;SDS011;1370;52.596;13.112;2023-02-28T07:12:14;19.33;;;9.50;;
2724;SDS011;1370;52.596;13.112;2023-02-28T07:14:39;10.53;;;8.33;;
2724;SDS011;1370;52.596;13.112;2023-02-28T07:17:06;10.87;;;8.47;;
2724;SDS011;1370;52.596;13.112;2023-02-28T07:19:32;11.25;;;8.20;;
2724;SDS011;1370;52.596;13.112;2023-02-28T07:21:57;9.57;;;8.47;;
2724;SDS011;1370;52.596;13.112;2023-02-28T07:24:23;11.47;;;10.20;;
2724;SDS011;1370;52.596;13.112;2023-02-28T07:26:50;12.43;;;8.85;;
2724;SDS011;1370;52.596;13.112;2023-02-28T07:29:16;12.23;;;10.43;;
2724;SDS011;1370;52.596;13.112;2023-02-28T07:31:41;14.53;;;11.50;;
2724;SDS011;1370;52.596;13.112;2023-02-28T07:34:06;15.30;;;11.07;;
2724;SDS011;1370;52.596;13.112;2023-02-28T07:36:31;20.90;;;13.00;;
2724;SDS011;1370;52.596;13.112;2023-02-28T07:38:57;17.73;;;12.20;;
2724;SDS011;1370;52.596;13.112;2023-02-28T07:41:23;15.77;;;12.80;;
2724;SDS011;1370;52.596;13.112;2023-02-28T07:43:52;19.92;;;11.45;;
2724;SDS011;1370;52.596;13.112;2023-02-28T07:46:19;12.85;;;11.32;;
2724;SDS011;1370;52.596;13.112;2023-02-28T07:48:46;15.82;;;10.10;;
2724;SDS011;1370;52.596;13.112;2023-02-28T07:51:11;11.83;;;10.63;;
2724;SDS011;1370;52.596;13.112;2023-02-28T07:53:37;15.07;;;11.40;;
2724;SDS011;1370;52.596;13.112;2023-02-28T07:56:02;16.67;;;9.70;;
2724;SDS011;1370;52.596;13.112;2023-02-28T07:58:28;17.60;;;9.73;;
2724;SDS011;1370;52.596;13.112;2023-02-28T08:00:55;11.30;;;10.10;;
2724;SDS011;1370;52.596;13.112;2023-02-28T08:03:20;16.77;;;9.57;;
2724;SDS011;1370;52.596;13.112;2023-02-28T08:05:46;14.30;;;10.00;;
2724;SDS011;1370;52.596;13.112;2023-02-28T08:08:12;10.97;;;9.87;;
2724;SDS011;1370;52.596;13.112;2023-02-28T08:10:38;17.63;;;11.10;;
2724;SDS011;1370;52.596;13.112;2023-02-28T08:13:03;11.37;;;9.27;;
2724;SDS011;1370;52.596;13.112;2023-02-28T08:15:28;12.77;;;9.73;;
2724;SDS011;1370;52.596;13.112;2023-02-28T08:17:54;13.67;;;9.90;;
2724;SDS011;1370;52.596;13.112;2023-02-28T08:20:21;10.87;;;9.70;;
2724;SDS011;1370;52.596;13.112;2023-02-28T08:22:46;13.00;;;10.47;;
2724;SDS011;1370;52.596;13.112;2023-02-28T08:25:12;11.33;;;10.17;;
2724;SDS011;1370;52.596;13.112;2023-02-28T08:27:37;12.90;;;10.40;;
2724;SDS011;1370;52.596;13.112;2023-02-28T08:30:03;13.07;;;11.50;;
2724;SDS011;1370;52.596;13.112;2023-02-28T08:32:28;17.10;;;11.27;;
2724;SDS011;1370;52.596;13.112;2023-02-28T08:34:54;14.13;;;11.20;;
2724;SDS011;1370;52.596;13.112;2023-02-28T08:37:19;14.43;;;11.10;;
2724;SDS011;1370;52.596;13.112;2023-02-28T08:39:45;11.90;;;10.77;;
2724;SDS011;1370;52.596;13.112;2023-02-28T08:42:10;13.50;;;10.40;;
2724;SDS011;1370;52.596;13.112;2023-02-28T08:44:35;13.03;;;11.73;;
2724;SDS011;1370;52.596;13.112;2023-02-28T08:47:01;11.77;;;10.67;;
2724;SDS011;1370;52.596;13.112;2023-02-28T08:49:26;14.43;;;9.43;;
2724;SDS011;1370;52.596;13.112;2023-02-28T08:51:51;8.83;;;8.10;;
2724;SDS011;1370;52.596;13.112;2023-02-28T08:54:16;11.23;;;9.23;;
2724;SDS011;1370;52.596;13.112;2023-02-28T08:56:44;7.47;;;6.77;;
2724;SDS011;1370;52.596;13.112;2023-02-28T08:59:10;8.80;;;7.40;;
2724;SDS011;1370;52.596;13.112;2023-02-28T09:01:35;3.80;;;3.50;;
2724;SDS011;1370;52.596;13.112;2023-02-28T09:04:01;5.70;;;4.10;;
2724;SDS011;1370;52.596;13.112;2023-02-28T09:06:27;5.83;;;3.93;;
2724;SDS011;1370;52.596;13.112;2023-02-28T09:08:52;6.73;;;3.47;;
2724;SDS011;1370;52.596;13.112;2023-02-28T09:11:18;4.67;;;4.27;;
2724;SDS011;1370;52.596;13.112;2023-02-28T09:13:44;5.90;;;4.33;;
2724;SDS011;1370;52.596;13.112;2023-02-28T09:16:11;4.17;;;3.70;;
2724;SDS011;1370;52.596;13.112;2023-02-28T09:18:38;4.87;;;3.63;;
2724;SDS011;1370;52.596;13.112;2023-02-28T09:21:04;4.90;;;4.10;;
2724;SDS011;1370;52.596;13.112;2023-02-28T09:23:30;3.53;;;3.23;;
2724;SDS011;1370;52.596;13.112;2023-02-28T09:25:56;4.30;;;3.67;;
2724;SDS011;1370;52.596;13.112;2023-02-28T09:28:21;4.33;;;4.03;;
2724;SDS011;1370;52.596;13.112;2023-02-28T09:30:48;3.73;;;3.00;;
2724;SDS011;1370;52.596;13.112;2023-02-28T09:33:15;4.40;;;3.10;;
2724;SDS011;1370;52.596;13.112;2023-02-28T09:35:41;3.80;;;2.80;;
2724;SDS011;1370;52.596;13.112;2023-02-28T09:38:07;4.00;;;3.20;;
2724;SDS011;1370;52.596;13.112;2023-02-28T09:40:35;3.07;;;2.30;;
2724;SDS011;1370;52.596;13.112;2023-02-28T09:43:02;5.83;;;4.20;;
2724;SDS011;1370;52.596;13.112;2023-02-28T09:48:06;7.70;;;2.73;;
2724;SDS011;1370;52.596;13.112;2023-02-28T09:50:38;4.33;;;3.30;;
2724;SDS011;1370;52.596;13.112;2023-02-28T09:53:11;4.03;;;3.00;;
2724;SDS011;1370;52.596;13.112;2023-02-28T09:55:54;3.43;;;3.10;;
2724;SDS011;1370;52.596;13.112;2023-02-28T09:58:23;6.93;;;3.47;;
2724;SDS011;1370;52.596;13.112;2023-02-28T10:00:56;3.53;;;3.23;;
2724;SDS011;1370;52.596;13.112;2023-02-28T10:03:28;3.97;;;2.63;;
2724;SDS011;1370;52.596;13.112;2023-02-28T10:06:05;3.27;;;3.03;;
2724;SDS011;1370;52.596;13.112;2023-02-28T10:08:37;2.23;;;2.03;;
2724;SDS011;1370;52.596;13.112;2023-02-28T10:11:08;3.70;;;3.30;;
2724;SDS011;1370;52.596;13.112;2023-02-28T10:13:36;4.53;;;2.77;;
2724;SDS011;1370;52.596;13.112;2023-02-28T10:16:36;3.10;;;2.50;;
2724;SDS011;1370;52.596;13.112;2023-02-28T10:19:19;4.53;;;3.17;;
2724;SDS011;1370;52.596;13.112;2023-02-28T10:21:48;4.43;;;2.77;;
2724;SDS011;1370;52.596;13.112;2023-02-28T10:24:21;4.83;;;2.90;;
2724;SDS011;1370;52.596;13.112;2023-02-28T10:26:52;5.23;;;3.03;;
2724;SDS011;1370;52.596;13.112;2023-02-28T10:29:23;5.07;;;3.17;;
2724;SDS011;1370;52.596;13.112;2023-02-28T10:31:49;3.93;;;3.00;;
2724;SDS011;1370;52.596;13.112;2023-02-28T10:34:14;6.83;;;3.50;;
2724;SDS011;1370;52.596;13.112;2023-02-28T10:36:39;3.37;;;3.07;;
2724;SDS011;1370;52.596;13.112;2023-02-28T10:42:02;5.70;;;3.30;;
2724;SDS011;1370;52.596;13.112;2023-02-28T10:44:28;4.33;;;3.33;;
2724;SDS011;1370;52.596;13.112;2023-02-28T10:46:53;5.80;;;3.90;;
2724;SDS011;1370;52.596;13.112;2023-02-28T10:49:23;3.80;;;3.20;;
2724;SDS011;1370;52.596;13.112;2023-02-28T10:51:52;3.53;;;3.10;;
2724;SDS011;1370;52.596;13.112;2023-02-28T10:54:20;3.33;;;3.10;;
2724;SDS011;1370;52.596;13.112;2023-02-28T10:59:41;3.80;;;3.03;;
2724;SDS011;1370;52.596;13.112;2023-02-28T11:04:54;2.40;;;2.20;;
2724;SDS011;1370;52.596;13.112;2023-02-28T11:07:20;3.63;;;2.70;;
2724;SDS011;1370;52.596;13.112;2023-02-28T11:09:48;3.40;;;2.23;;
2724;SDS011;1370;52.596;13.112;2023-02-28T11:12:21;3.37;;;2.83;;
2724;SDS011;1370;52.596;13.112;2023-02-28T11:14:48;5.93;;;3.60;;
2724;SDS011;1370;52.596;13.112;2023-02-28T11:17:19;4.00;;;2.70;;
2724;SDS011;1370;52.596;13.112;2023-02-28T11:19:47;5.17;;;2.83;;
2724;SDS011;1370;52.596;13.112;2023-02-28T11:22:23;2.90;;;2.67;;
2724;SDS011;1370;52.596;13.112;2023-02-28T11:24:53;2.43;;;2.23;;
2724;SDS011;1370;52.596;13.112;2023-02-28T11:29:55;5.13;;;3.50;;
2724;SDS011;1370;52.596;13.112;2023-02-28T11:32:21;3.60;;;3.13;;
2724;SDS011;1370;52.596;13.112;2023-02-28T11:35:00;2.90;;;2.60;;
2724;SDS011;1370;52.596;13.112;2023-02-28T11:37:39;4.10;;;2.70;;
2724;SDS011;1370;52.596;13.112;2023-02-28T11:40:08;3.20;;;2.90;;
2724;SDS011;1370;52.596;13.112;2023-02-28T11:42:47;2.87;;;2.50;;
2724;SDS011;1370;52.596;13.112;2023-02-28T11:45:41;3.03;;;2.73;;
2724;SDS011;1370;52.596;13.112;2023-02-28T11:48:25;3.90;;;2.83;;
2724;SDS011;1370;52.596;13.112;2023-02-28T11:50:55;3.30;;;3.07;;
2724;SDS011;1370;52.596;13.112;2023-02-28T11:53:39;5.13;;;3.53;;
2724;SDS011;1370;52.596;13.112;2023-02-28T11:56:31;5.23;;;3.20;;
2724;SDS011;1370;52.596;13.112;2023-02-28T12:02:20;4.87;;;3.10;;
2724;SDS011;1370;52.596;13.112;2023-02-28T12:04:25;4.10;;;2.87;;
2724;SDS011;1370;52.596;13.112;2023-02-28T12:07:03;3.00;;;2.80;;
2724;SDS011;1370;52.596;13.112;2023-02-28T12:12:16;3.80;;;3.50;;
2724;SDS011;1370;52.596;13.112;2023-02-28T12:20:33;3.10;;;2.80;;
2724;SDS011;1370;52.596;13.112;2023-02-28T12:26:07;4.20;;;2.60;;
2724;SDS011;1370;52.596;13.112;2023-02-28T12:28:45;41.40;;;29.00;;
2724;SDS011;1370;52.596;13.112;2023-02-28T12:31:26;5.10;;;3.60;;
2724;SDS011;1370;52.596;13.112;2023-02-28T12:33:56;3.80;;;3.30;;
2724;SDS011;1370;52.596;13.112;2023-02-28T12:36:25;6.10;;;3.47;;
2724;SDS011;1370;52.596;13.112;2023-02-28T12:38:54;3.57;;;3.10;;
2724;SDS011;1370;52.596;13.112;2023-02-28T12:41:33;9.57;;;8.63;;
2724;SDS011;1370;52.596;13.112;2023-02-28T12:44:03;6.93;;;4.20;;
2724;SDS011;1370;52.596;13.112;2023-02-28T12:46:35;5.07;;;4.20;;
2724;SDS011;1370;52.596;13.112;2023-02-28T12:49:05;2.70;;;2.43;;
2724;SDS011;1370;52.596;13.112;2023-02-28T12:51:33;5.03;;;3.40;;
2724;SDS011;1370;52.596;13.112;2023-02-28T12:57:06;5.83;;;3.47;;
2724;SDS011;1370;52.596;13.112;2023-02-28T12:59:43;11.33;;;3.03;;
2724;SDS011;1370;52.596;13.112;2023-02-28T13:02:20;7.30;;;3.73;;
2724;SDS011;1370;52.596;13.112;2023-02-28T13:10:18;3.20;;;2.90;;
2724;SDS011;1370;52.596;13.112;2023-02-28T13:12:51;4.37;;;4.03;;
2724;SDS011;1370;52.596;13.112;2023-02-28T13:17:53;11.83;;;10.83;;
2724;SDS011;1370;52.596;13.112;2023-02-28T13:20:21;4.53;;;3.57;;
2724;SDS011;1370;52.596;13.112;2023-02-28T13:22:49;4.00;;;3.30;;
2724;SDS011;1370;52.596;13.112;2023-02-28T13:25:49;5.90;;;5.30;;
2724;SDS011;1370;52.596;13.112;2023-02-28T13:28:10;15.00;;;9.80;;
2724;SDS011;1370;52.596;13.112;2023-02-28T13:38:47;5.03;;;3.40;;
2724;SDS011;1370;52.596;13.112;2023-02-28T13:47:13;3.30;;;3.00;;
2724;SDS011;1370;52.596;13.112;2023-02-28T13:49:25;3.80;;;3.27;;
2724;SDS011;1370;52.596;13.112;2023-02-28T13:52:09;3.50;;;2.63;;
2724;SDS011;1370;52.596;13.112;2023-02-28T13:54:56;5.20;;;3.10;;
2724;SDS011;1370;52.596;13.112;2023-02-28T13:57:58;10.03;;;8.33;;
2724;SDS011;1370;52.596;13.112;2023-02-28T14:06:16;15.13;;;12.97;;
2724;SDS011;1370;52.596;13.112;2023-02-28T14:08:55;4.50;;;4.10;;
2724;SDS011;1370;52.596;13.112;2023-02-28T14:11:25;4.07;;;3.70;;
2724;SDS011;1370;52.596;13.112;2023-02-28T14:13:58;3.60;;;3.30;;
2724;SDS011;1370;52.596;13.112;2023-02-28T14:16:24;4.07;;;3.73;;
2724;SDS011;1370;52.596;13.112;2023-02-28T14:18:55;4.47;;;3.97;;
2724;SDS011;1370;52.596;13.112;2023-02-28T14:21:24;5.20;;;3.77;;
2724;SDS011;1370;52.596;13.112;2023-02-28T14:24:10;4.33;;;3.60;;
2724;SDS011;1370;52.596;13.112;2023-02-28T14:27:07;5.50;;;3.67;;
2724;SDS011;1370;52.596;13.112;2023-02-28T14:29:36;4.23;;;3.80;;
2724;SDS011;1370;52.596;13.112;2023-02-28T14:32:25;4.77;;;3.27;;
2724;SDS011;1370;52.596;13.112;2023-02-28T14:34:55;6.43;;;3.60;;
2724;SDS011;1370;52.596;13.112;2023-02-28T14:37:33;5.03;;;3.10;;
2724;SDS011;1370;52.596;13.112;2023-02-28T14:40:01;3.60;;;2.63;;
2724;SDS011;1370;52.596;13.112;2023-02-28T14:42:30;4.23;;;3.63;;
2724;SDS011;1370;52.596;13.112;2023-02-28T14:45:00;5.37;;;3.37;;
2724;SDS011;1370;52.596;13.112;2023-02-28T14:47:33;4.00;;;3.20;;
2724;SDS011;1370;52.596;13.112;2023-02-28T14:49:59;3.13;;;2.77;;
2724;SDS011;1370;52.596;13.112;2023-02-28T14:52:26;3.97;;;3.20;;
2724;SDS011;1370;52.596;13.112;2023-02-28T14:54:54;5.60;;;3.37;;
2724;SDS011;1370;52.596;13.112;2023-02-28T14:57:22;4.63;;;3.00;;
2724;SDS011;1370;52.596;13.112;2023-02-28T15:00:12;4.10;;;3.03;;
2724;SDS011;1370;52.596;13.112;2023-02-28T15:02:40;5.83;;;3.27;;
2724;SDS011;1370;52.596;13.112;2023-02-28T15:07:35;3.60;;;3.30;;
2724;SDS011;1370;52.596;13.112;2023-02-28T15:12:34;6.33;;;3.43;;
2724;SDS011;1370;52.596;13.112;2023-02-28T15:14:59;3.50;;;2.70;;
2724;SDS011;1370;52.596;13.112;2023-02-28T15:17:25;3.00;;;2.80;;
2724;SDS011;1370;52.596;13.112;2023-02-28T15:19:51;3.70;;;3.23;;
2724;SDS011;1370;52.596;13.112;2023-02-28T15:22:17;5.00;;;4.60;;
2724;SDS011;1370;52.596;13.112;2023-02-28T15:24:47;4.63;;;3.23;;
2724;SDS011;1370;52.596;13.112;2023-02-28T15:29:48;5.10;;;3.83;;
2724;SDS011;1370;52.596;13.112;2023-02-28T15:32:29;4.00;;;3.60;;
2724;SDS011;1370;52.596;13.112;2023-02-28T15:34:55;3.60;;;3.03;;
2724;SDS011;1370;52.596;13.112;2023-02-28T15:37:37;6.70;;;3.00;;
2724;SDS011;1370;52.596;13.112;2023-02-28T15:40:10;3.57;;;3.27;;
2724;SDS011;1370;52.596;13.112;2023-02-28T15:42:38;3.03;;;2.70;;
2724;SDS011;1370;52.596;13.112;2023-02-28T15:45:04;4.30;;;3.17;;
2724;SDS011;1370;52.596;13.112;2023-02-28T15:47:29;2.50;;;2.30;;
2724;SDS011;1370;52.596;13.112;2023-02-28T15:50:06;2.53;;;2.33;;
2724;SDS011;1370;52.596;13.112;2023-02-28T15:52:39;3.73;;;3.03;;
2724;SDS011;1370;52.596;13.112;2023-02-28T15:55:11;3.10;;;2.77;;
2724;SDS011;1370;52.596;13.112;2023-02-28T15:57:50;4.23;;;3.77;;
2724;SDS011;1370;52.596;13.112;2023-02-28T16:00:20;11.40;;;5.80;;
2724;SDS011;1370;52.596;13.112;2023-02-28T16:02:47;22.20;;;13.43;;
2724;SDS011;1370;52.596;13.112;2023-02-28T16:07:46;24.77;;;15.20;;
2724;SDS011;1370;52.596;13.112;2023-02-28T16:10:13;11.80;;;9.40;;
2724;SDS011;1370;52.596;13.112;2023-02-28T16:12:39;10.20;;;9.10;;
2724;SDS011;1370;52.596;13.112;2023-02-28T16:15:14;9.77;;;8.77;;
2724;SDS011;1370;52.596;13.112;2023-02-28T16:17:43;8.50;;;7.67;;
2724;SDS011;1370;52.596;13.112;2023-02-28T16:20:12;8.40;;;5.93;;
2724;SDS011;1370;52.596;13.112;2023-02-28T16:22:41;10.93;;;6.20;;
2724;SDS011;1370;52.596;13.112;2023-02-28T16:25:10;8.50;;;4.60;;
2724;SDS011;1370;52.596;13.112;2023-02-28T16:27:36;7.30;;;4.60;;
2724;SDS011;1370;52.596;13.112;2023-02-28T16:30:03;4.67;;;4.20;;
2724;SDS011;1370;52.596;13.112;2023-02-28T16:32:30;4.33;;;3.87;;
2724;SDS011;1370;52.596;13.112;2023-02-28T16:34:57;5.10;;;3.90;;
2724;SDS011;1370;52.596;13.112;2023-02-28T16:37:22;4.43;;;3.50;;
2724;SDS011;1370;52.596;13.112;2023-02-28T16:39:47;4.63;;;4.03;;
2724;SDS011;1370;52.596;13.112;2023-02-28T16:42:20;4.07;;;3.73;;